Time;durP1;ratioP1;P1;durP2;ratioP2;P2;SDS_P1;SDS_P2;PMS_P1;PMS_P2;Temp;Humidity;BMP_temperature;BMP_pressure;BME280_temperature;BME280_humidity;BME280_pressure;Samples;Min_cycle;Max_cycle;Signal;HPM_P1;HPM_P2
2023/01/24 00:00:50;;;;;;;24.13;13.02;;;;;;;1.79;95.11;103406.25;5062112;28;20048;-82
2023/01/24 00:03:16;;;;;;;27.35;14.10;;;;;;;1.68;95.18;103412.47;5046909;28;20033;-81
2023/01/24 00:05:44;;;;;;;30.35;14.73;;;;;;;1.65;95.37;103407.41;5045024;28;20037;-81
2023/01/24 00:08:15;;;;;;;28.00;13.32;;;;;;;1.66;95.27;103408.25;5048106;28;20048;-81
2023/01/24 00:10:41;;;;;;;23.17;13.20;;;;;;;1.72;94.99;103408.94;5027377;28;20564;-82
2023/01/24 00:13:10;;;;;;;21.98;12.55;;;;;;;1.69;94.85;103409.00;5044490;28;20120;-82
2023/01/24 00:15:35;;;;;;;25.17;13.10;;;;;;;1.64;94.81;103418.53;5046206;28;20397;-81
2023/01/24 00:18:02;;;;;;;24.98;12.75;;;;;;;1.70;94.52;103404.75;5045577;28;20025;-81
2023/01/24 00:20:27;;;;;;;23.08;11.60;;;;;;;1.73;93.99;103412.34;5044815;28;20203;-81
2023/01/24 00:22:53;;;;;;;22.98;12.52;;;;;;;1.72;94.08;103413.22;5030304;28;21060;-81
2023/01/24 00:25:18;;;;;;;25.90;13.00;;;;;;;1.60;94.59;103414.34;5050043;28;20036;-81
2023/01/24 00:27:43;;;;;;;25.92;12.85;;;;;;;1.64;94.84;103408.28;5030494;28;20025;-80
2023/01/24 00:30:10;;;;;;;28.92;13.52;;;;;;;1.60;95.34;103405.81;5048817;28;20120;-81
2023/01/24 00:32:36;;;;;;;25.85;12.90;;;;;;;1.62;95.31;103407.50;5048093;28;20115;-81
2023/01/24 00:35:01;;;;;;;25.67;12.95;;;;;;;1.65;95.30;103409.97;5048364;28;20574;-81
2023/01/24 00:37:27;;;;;;;22.75;12.15;;;;;;;1.78;95.31;103412.25;5063290;28;20043;-80
2023/01/24 00:39:52;;;;;;;26.10;12.68;;;;;;;1.78;94.15;103418.22;5048644;28;20503;-81
2023/01/24 00:42:18;;;;;;;22.75;11.60;;;;;;;1.69;94.22;103413.28;5046266;28;20148;-82
2023/01/24 00:44:43;;;;;;;25.67;12.80;;;;;;;1.70;94.67;103415.00;5047034;28;20044;-81
2023/01/24 00:47:09;;;;;;;34.22;16.70;;;;;;;1.72;93.93;103416.63;5046570;28;20032;-81
2023/01/24 00:49:36;;;;;;;22.30;11.23;;;;;;;1.72;94.02;103406.41;5049640;28;20075;-82
2023/01/24 00:52:01;;;;;;;24.20;12.18;;;;;;;1.68;94.33;103396.28;5059877;28;20036;-82
2023/01/24 00:54:27;;;;;;;24.98;12.23;;;;;;;1.61;95.04;103405.78;5063260;28;20026;-82
2023/01/24 00:56:52;;;;;;;25.55;13.05;;;;;;;1.70;94.35;103397.09;5059068;28;20041;-81
2023/01/24 00:59:18;;;;;;;25.60;13.02;;;;;;;1.64;94.10;103395.50;5031431;28;20060;-80
2023/01/24 01:01:43;;;;;;;26.25;12.30;;;;;;;1.66;94.40;103398.03;5048087;28;20049;-81
2023/01/24 01:04:10;;;;;;;21.15;11.45;;;;;;;1.69;93.90;103392.81;5047855;28;20024;-82
2023/01/24 01:06:36;;;;;;;25.00;12.43;;;;;;;1.73;93.72;103399.56;5029148;28;20041;-81
2023/01/24 01:09:02;;;;;;;25.00;11.85;;;;;;;1.73;93.38;103404.66;5053086;28;20037;-81
2023/01/24 01:11:28;;;;;;;20.80;10.63;;;;;;;1.65;93.52;103409.13;5048446;28;20478;-80
2023/01/24 01:13:57;;;;;;;23.80;11.82;;;;;;;1.65;93.37;103398.91;5034185;28;20041;-81
2023/01/24 01:16:23;;;;;;;20.63;11.43;;;;;;;1.68;93.24;103399.66;5067010;28;20091;-80
2023/01/24 01:18:50;;;;;;;22.45;11.60;;;;;;;1.62;93.65;103399.81;5036394;28;20494;-81
2023/01/24 01:21:18;;;;;;;22.33;11.27;;;;;;;1.63;93.59;103401.47;5047030;28;20033;-82
2023/01/24 01:23:44;;;;;;;21.98;11.50;;;;;;;1.62;93.33;103404.94;5060830;28;20060;-80
2023/01/24 01:26:16;;;;;;;23.05;11.23;;;;;;;1.58;92.94;103405.84;5027079;28;20057;-81
2023/01/24 01:28:41;;;;;;;22.57;11.53;;;;;;;1.57;93.39;103409.31;5045168;28;20043;-80
2023/01/24 01:31:07;;;;;;;25.30;11.82;;;;;;;1.51;93.67;103410.28;5031591;28;20571;-80
2023/01/24 01:33:32;;;;;;;25.50;12.65;;;;;;;1.58;93.78;103417.81;5049796;28;20068;-81
2023/01/24 01:35:58;;;;;;;25.20;12.75;;;;;;;1.51;94.33;103420.50;5053834;28;20033;-79
2023/01/24 01:38:25;;;;;;;24.10;12.07;;;;;;;1.55;94.29;103413.59;5043861;28;20583;-81
2023/01/24 01:40:51;;;;;;;25.10;13.02;;;;;;;1.51;94.55;103423.06;5046258;28;20037;-80
2023/01/24 01:43:19;;;;;;;23.70;12.10;;;;;;;1.48;94.70;103419.72;5042699;28;20029;-81
2023/01/24 01:45:49;;;;;;;24.73;11.57;;;;;;;1.50;94.70;103411.13;5054710;28;20067;-81
2023/01/24 01:48:18;;;;;;;26.10;13.18;;;;;;;1.48;94.83;103412.88;5039691;28;20066;-82
2023/01/24 01:50:50;;;;;;;23.17;12.15;;;;;;;1.52;95.09;103413.66;5043474;28;20047;-81
2023/01/24 01:53:16;;;;;;;26.58;13.77;;;;;;;1.52;94.97;103416.22;5041050;28;20056;-82
2023/01/24 01:55:47;;;;;;;24.55;12.75;;;;;;;1.46;95.05;103421.47;5056718;28;20099;-81
2023/01/24 01:58:15;;;;;;;24.63;12.32;;;;;;;1.58;95.00;103413.53;5062335;28;20211;-82
2023/01/24 02:00:49;;;;;;;26.67;13.27;;;;;;;1.44;95.14;103406.16;5055800;28;20113;-81
2023/01/24 02:06:03;;;;;;;24.77;13.00;;;;;;;1.46;95.12;103411.25;5060748;28;20044;-82
2023/01/24 02:08:29;;;;;;;24.52;13.10;;;;;;;1.40;94.62;103413.94;5047593;28;20032;-81
2023/01/24 02:13:44;;;;;;;25.23;12.60;;;;;;;1.55;95.02;103417.00;5048021;28;20040;-81
2023/01/24 02:16:11;;;;;;;25.05;12.75;;;;;;;1.43;95.39;103413.84;5047087;28;20029;-79
2023/01/24 02:18:40;;;;;;;27.40;13.27;;;;;;;1.38;95.36;103413.97;5034424;28;20113;-80
2023/01/24 02:21:10;;;;;;;25.88;12.23;;;;;;;1.44;95.45;103416.38;5049073;28;20136;-80
2023/01/24 02:23:36;;;;;;;22.92;11.65;;;;;;;1.44;95.38;103416.38;5047312;28;20098;-79
2023/01/24 02:26:14;;;;;;;34.20;13.52;;;;;;;1.49;95.20;103416.31;5065144;28;20116;-82
2023/01/24 02:28:55;;;;;;;23.92;11.95;;;;;;;1.42;95.36;103417.31;5059643;28;20037;-82
2023/01/24 02:31:21;;;;;;;26.85;12.90;;;;;;;1.46;95.69;103408.69;5048607;28;20114;-81
2023/01/24 02:33:46;;;;;;;22.92;12.23;;;;;;;1.50;94.55;103413.69;5033540;28;20044;-81
2023/01/24 02:36:28;;;;;;;21.95;10.98;;;;;;;1.48;94.40;103405.22;5062747;28;20033;-83
2023/01/24 02:39:11;;;;;;;20.50;10.73;;;;;;;1.54;92.79;103400.00;5061515;28;20043;-81
2023/01/24 02:41:53;;;;;;;21.75;9.93;;;;;;;1.59;91.86;103404.16;5062717;28;20071;-81
2023/01/24 02:44:34;;;;;;;18.95;9.90;;;;;;;1.57;91.99;103409.31;5067369;28;20033;-82
2023/01/24 02:46:59;;;;;;;18.75;9.82;;;;;;;1.53;91.91;103402.56;5065149;28;20041;-82
2023/01/24 02:49:24;;;;;;;19.25;10.20;;;;;;;1.45;92.59;103401.88;5062747;28;20036;-80
2023/01/24 02:54:34;;;;;;;20.38;10.25;;;;;;;1.40;92.70;103402.00;5044246;28;20303;-82
2023/01/24 02:59:44;;;;;;;16.58;8.45;;;;;;;1.51;91.78;103400.03;5042018;28;20033;-81
2023/01/24 03:02:10;;;;;;;16.60;9.32;;;;;;;1.44;92.66;103398.50;5030634;28;20504;-82
2023/01/24 03:04:36;;;;;;;17.58;9.50;;;;;;;1.41;92.62;103390.88;5062536;28;20032;-80
2023/01/24 03:07:02;;;;;;;19.20;8.80;;;;;;;1.44;91.91;103387.44;5043932;28;20112;-81
2023/01/24 03:09:33;;;;;;;20.50;10.02;;;;;;;1.39;92.66;103379.00;5048038;28;20032;-81
2023/01/24 03:36:44;;;;;;;15.98;8.55;;;;;;;1.39;92.29;103395.19;5046514;28;20040;-80
2023/01/24 03:41:56;;;;;;;14.32;7.70;;;;;;;1.40;91.49;103390.94;5042600;28;20059;-81
2023/01/24 03:44:23;;;;;;;16.83;7.80;;;;;;;1.44;91.84;103393.38;5030241;28;20021;-80
2023/01/24 03:46:48;;;;;;;16.45;7.78;;;;;;;1.38;92.04;103390.97;5046832;28;20124;-80
2023/01/24 03:49:16;;;;;;;14.98;7.90;;;;;;;1.32;92.42;103388.53;5048177;28;20067;-82
2023/01/24 03:54:27;;;;;;;18.02;8.55;;;;;;;1.27;93.19;103382.66;5053177;28;20785;-82
2023/01/24 03:57:02;;;;;;;17.63;8.23;;;;;;;1.33;93.89;103390.22;5061423;28;20051;-81
2023/01/24 03:59:27;;;;;;;13.55;7.35;;;;;;;1.37;93.62;103391.81;5049176;28;20037;-80
2023/01/24 04:01:54;;;;;;;14.93;7.85;;;;;;;1.39;93.02;103387.50;5050162;28;20610;-80
2023/01/24 04:05:11;;;;;;;14.75;8.02;;;;;;;1.39;92.63;103394.34;5054413;28;20060;-80
2023/01/24 04:07:09;;;;;;;13.45;7.75;;;;;;;1.45;91.53;103392.50;5062996;28;20048;-79
2023/01/24 04:09:35;;;;;;;13.93;7.20;;;;;;;1.46;90.71;103391.63;5046661;28;20048;-80
2023/01/24 04:12:01;;;;;;;15.00;6.93;;;;;;;1.47;90.51;103387.34;5045917;28;20029;-81
2023/01/24 04:14:26;;;;;;;11.38;6.55;;;;;;;1.37;90.19;103389.25;5044134;28;20037;-81
2023/01/24 04:17:02;;;;;;;12.50;7.03;;;;;;;1.49;89.99;103385.63;5030576;28;20037;-80
2023/01/24 04:19:36;;;;;;;14.20;6.47;;;;;;;1.51;89.55;103383.88;5041788;28;20191;-81
2023/01/24 04:22:02;;;;;;;12.43;6.65;;;;;;;1.36;89.98;103385.03;5059805;28;20048;-80
2023/01/24 04:24:29;;;;;;;11.75;6.75;;;;;;;1.33;89.71;103387.66;5043516;28;20033;-80
2023/01/24 04:26:55;;;;;;;10.65;6.35;;;;;;;1.25;89.57;103387.81;5047156;28;20037;-81
2023/01/24 04:29:26;;;;;;;10.85;6.28;;;;;;;1.20;90.33;103386.22;5029480;28;20031;-81
2023/01/24 04:31:54;;;;;;;13.68;7.40;;;;;;;1.29;89.92;103383.47;5046363;28;20041;-80
2023/01/24 04:34:29;;;;;;;12.75;7.43;;;;;;;1.33;89.78;103378.25;5028780;28;20136;-81
2023/01/24 04:36:54;;;;;;;12.77;6.82;;;;;;;1.43;89.52;103378.94;5030499;28;20056;-80
2023/01/24 04:39:20;;;;;;;11.13;6.30;;;;;;;1.42;89.14;103376.41;5045966;28;20025;-80
2023/01/24 04:41:56;;;;;;;13.15;6.80;;;;;;;1.34;89.47;103376.56;5030892;28;20036;-80
2023/01/24 04:44:22;;;;;;;13.32;7.40;;;;;;;1.32;89.26;103380.88;5062138;28;20025;-81
2023/01/24 04:46:48;;;;;;;15.13;7.50;;;;;;;1.24;89.72;103375.88;5043496;28;20045;-80
2023/01/24 04:49:15;;;;;;;13.18;6.93;;;;;;;1.39;88.85;103384.13;5057094;28;20032;-81
2023/01/24 04:51:49;;;;;;;13.20;7.00;;;;;;;1.31;88.92;103380.00;5026935;28;20118;-79
2023/01/24 04:54:20;;;;;;;17.80;7.35;;;;;;;1.23;89.32;103381.06;5063364;28;20025;-80
2023/01/24 04:56:46;;;;;;;21.10;8.88;;;;;;;1.16;90.24;103388.84;5045763;28;20509;-82
2023/01/24 04:59:12;;;;;;;16.10;8.40;;;;;;;1.14;90.26;103384.63;5060447;28;20068;-81
2023/01/24 05:01:39;;;;;;;17.48;8.40;;;;;;;1.28;90.25;103384.34;5046575;28;20410;-77
2023/01/24 05:04:14;;;;;;;14.95;8.23;;;;;;;1.22;89.82;103381.91;5046808;28;20025;-79
2023/01/24 05:06:40;;;;;;;17.10;8.35;;;;;;;1.24;90.38;103386.13;5044414;28;20452;-81
2023/01/24 05:09:06;;;;;;;15.60;8.60;;;;;;;1.21;89.77;103380.25;5040178;28;20041;-80
2023/01/24 05:11:52;;;;;;;11.88;6.45;;;;;;;1.28;90.06;103392.88;5046071;28;20086;-80
2023/01/24 05:14:18;;;;;;;16.13;8.23;;;;;;;1.19;90.43;103393.06;5029439;28;20033;-80
2023/01/24 05:16:43;;;;;;;13.85;7.35;;;;;;;1.25;89.79;103387.81;5024503;28;20047;-81
2023/01/24 05:19:10;;;;;;;13.75;7.53;;;;;;;1.20;90.24;103399.84;5042699;28;20509;-81
2023/01/24 05:21:36;;;;;;;14.93;7.20;;;;;;;1.13;90.88;103399.13;5043297;28;20048;-81
2023/01/24 05:24:03;;;;;;;13.55;7.53;;;;;;;1.16;90.42;103398.22;5046698;28;20389;-83
2023/01/24 05:26:28;;;;;;;11.88;7.18;;;;;;;1.24;89.48;103395.50;5048173;28;20048;-80
2023/01/24 05:28:55;;;;;;;15.38;8.25;;;;;;;1.11;89.65;103400.88;5046619;28;20025;-81
2023/01/24 05:31:22;;;;;;;12.15;7.18;;;;;;;1.21;89.90;103401.53;5043442;28;20037;-83
2023/01/24 05:33:48;;;;;;;13.63;7.55;;;;;;;1.13;90.00;103404.25;5063808;28;20035;-81
2023/01/24 05:36:20;;;;;;;14.75;7.40;;;;;;;1.16;89.86;103400.78;5042984;28;20191;-81
2023/01/24 05:38:46;;;;;;;;;;;;;;;1.08;90.68;103406.06;5046335;28;20440;-80
2023/01/24 05:41:16;;;;;;;13.20;7.65;;;;;;;1.05;90.57;103411.22;5039836;28;19929;-80
2023/01/24 05:43:43;;;;;;;14.05;7.65;;;;;;;1.07;90.87;103411.19;5062762;28;20477;-81
2023/01/24 05:46:28;;;;;;;16.08;8.23;;;;;;;1.03;91.21;103410.41;5048305;28;20028;-80
2023/01/24 05:49:13;;;;;;;14.27;7.47;;;;;;;1.06;91.29;103412.06;5050016;28;20041;-81
2023/01/24 05:51:39;;;;;;;14.48;7.78;;;;;;;1.04;91.03;103413.81;5061201;28;20044;-81
2023/01/24 05:54:05;;;;;;;15.38;8.10;;;;;;;1.14;91.18;103417.88;5053812;28;20028;-80
2023/01/24 05:56:53;;;;;;;14.40;7.55;;;;;;;1.08;91.42;103421.38;5035307;28;20060;-81
2023/01/24 05:59:18;;;;;;;15.68;8.05;;;;;;;1.13;91.46;103428.94;5048407;28;20036;-82
2023/01/24 06:01:45;;;;;;;15.20;7.57;;;;;;;1.08;91.17;103425.66;5032857;28;20052;-80
2023/01/24 06:04:10;;;;;;;15.13;8.43;;;;;;;1.05;91.56;103429.09;5027917;28;20437;-81
2023/01/24 06:06:37;;;;;;;19.08;9.27;;;;;;;1.07;92.01;103427.34;5044442;28;20033;-80
2023/01/24 06:09:03;;;;;;;17.30;9.43;;;;;;;1.15;91.42;103429.78;5036511;28;20071;-80
2023/01/24 06:11:29;;;;;;;13.57;7.72;;;;;;;1.06;90.92;103437.63;5062179;28;20136;-80
2023/01/24 06:14:04;;;;;;;16.23;8.07;;;;;;;1.08;90.73;103441.84;5049293;28;20029;-81
2023/01/24 06:16:30;;;;;;;15.68;8.10;;;;;;;1.22;91.11;103435.59;5058643;28;20130;-80
2023/01/24 06:18:56;;;;;;;14.00;8.07;;;;;;;1.24;90.59;103441.53;5045658;28;20049;-81
2023/01/24 06:21:37;;;;;;;13.80;8.07;;;;;;;1.20;90.28;103442.47;5045531;28;20037;-80
2023/01/24 06:24:04;;;;;;;18.05;8.80;;;;;;;1.08;91.12;103449.50;5062812;28;20398;-80
2023/01/24 06:26:43;;;;;;;17.25;7.80;;;;;;;1.06;91.06;103446.13;5044915;28;20080;-80
2023/01/24 06:29:10;;;;;;;14.57;8.25;;;;;;;1.07;91.04;103446.97;5064942;28;20494;-81
2023/01/24 06:31:54;;;;;;;14.57;8.00;;;;;;;1.06;91.29;103445.31;5047750;28;20037;-81
2023/01/24 06:34:38;;;;;;;14.27;8.18;;;;;;;1.13;90.64;103449.41;5059306;28;20037;-81
2023/01/24 06:37:18;;;;;;;18.42;9.15;;;;;;;1.17;91.04;103456.16;5064083;28;20056;-80
2023/01/24 06:39:50;;;;;;;17.30;8.50;;;;;;;1.25;89.37;103458.56;5060617;28;20033;-81
2023/01/24 06:42:17;;;;;;;16.15;8.10;;;;;;;1.17;89.54;103453.59;5047691;28;20057;-80
2023/01/24 06:44:43;;;;;;;17.30;8.80;;;;;;;1.12;89.76;103455.41;5063877;28;20037;-82
2023/01/24 06:47:10;;;;;;;15.52;8.30;;;;;;;1.07;90.69;103452.91;5048280;28;20036;-82
2023/01/24 06:49:36;;;;;;;18.05;9.30;;;;;;;1.03;90.94;103453.00;5034223;28;20482;-81
2023/01/24 06:52:01;;;;;;;16.15;7.93;;;;;;;1.06;90.91;103458.91;5046850;28;20037;-78
2023/01/24 06:54:27;;;;;;;18.38;9.48;;;;;;;1.01;91.58;103453.03;5049498;28;20047;-81
2023/01/24 06:56:52;;;;;;;17.08;9.10;;;;;;;1.07;90.96;103450.34;5061925;28;20513;-78
2023/01/24 06:59:19;;;;;;;20.15;9.65;;;;;;;1.08;91.16;103453.78;5048035;28;20028;-79
2023/01/24 07:01:44;;;;;;;24.33;12.57;;;;;;;1.06;90.71;103461.47;5046079;28;20519;-82
2023/01/24 07:04:10;;;;;;;18.83;9.32;;;;;;;1.17;90.59;103453.59;5052685;28;20026;-81
2023/01/24 07:06:35;;;;;;;19.73;10.32;;;;;;;1.06;91.21;103458.06;5033431;28;20033;-79
2023/01/24 07:09:01;;;;;;;22.30;10.45;;;;;;;1.02;92.16;103471.75;5048763;28;20033;-80
2023/01/24 07:11:27;;;;;;;20.17;9.45;;;;;;;0.99;92.37;103466.72;5047301;28;20029;-81
2023/01/24 07:13:52;;;;;;;21.05;10.13;;;;;;;1.05;92.59;103480.22;5064294;28;20059;-81
2023/01/24 07:16:18;;;;;;;20.60;10.30;;;;;;;1.03;92.39;103478.56;5046985;28;20044;-81
2023/01/24 07:18:43;;;;;;;18.77;9.55;;;;;;;0.99;91.95;103482.88;5049141;28;20406;-81
2023/01/24 07:21:09;;;;;;;20.63;10.30;;;;;;;1.06;91.23;103486.19;5047778;28;20051;-81
2023/01/24 07:23:36;;;;;;;20.08;10.63;;;;;;;1.00;91.82;103483.72;5046902;28;20044;-81
2023/01/24 07:26:03;;;;;;;20.60;10.10;;;;;;;1.10;91.30;103496.31;5031260;28;20044;-81
2023/01/24 07:28:28;;;;;;;19.45;9.95;;;;;;;1.09;91.00;103496.34;5049667;28;20036;-80
2023/01/24 07:30:55;;;;;;;19.88;10.30;;;;;;;1.05;90.67;103495.56;5046366;28;20041;-81
2023/01/24 07:33:21;;;;;;;18.55;9.25;;;;;;;1.02;91.11;103489.66;5048644;28;20127;-82
2023/01/24 07:35:46;;;;;;;21.67;10.23;;;;;;;1.01;91.30;103493.09;5026248;28;20034;-80
2023/01/24 07:38:12;;;;;;;22.65;11.15;;;;;;;1.02;91.51;103504.97;5058690;28;20504;-81
2023/01/24 07:40:38;;;;;;;21.13;10.65;;;;;;;1.11;91.76;103509.94;5029799;28;20041;-80
2023/01/24 07:43:04;;;;;;;21.23;11.25;;;;;;;1.11;90.76;103505.69;5050022;28;20033;-81
2023/01/24 07:45:31;;;;;;;22.02;10.45;;;;;;;1.12;90.52;103511.63;5055945;28;20069;-81
2023/01/24 07:47:58;;;;;;;22.75;10.85;;;;;;;1.06;91.54;103511.75;5028569;28;20417;-81
2023/01/24 07:50:24;;;;;;;41.63;17.08;;;;;;;1.03;92.27;103512.63;5046227;28;20029;-82
2023/01/24 07:52:51;;;;;;;39.50;16.05;;;;;;;1.04;92.85;103518.59;5030317;28;20147;-81
2023/01/24 07:55:17;;;;;;;26.25;12.60;;;;;;;1.02;93.13;103512.66;5047877;28;20379;-80
2023/01/24 07:57:43;;;;;;;24.92;11.95;;;;;;;1.07;92.63;103518.53;5042696;28;20470;-81
2023/01/24 08:00:09;;;;;;;22.05;11.50;;;;;;;1.04;92.86;103513.50;5043676;28;20047;-81
2023/01/24 08:02:37;;;;;;;22.80;10.88;;;;;;;1.10;91.82;103515.94;5045152;28;20028;-82
2023/01/24 08:05:03;;;;;;;22.42;11.15;;;;;;;1.11;91.24;103513.34;5045346;28;20033;-80
2023/01/24 08:07:28;;;;;;;22.58;11.98;;;;;;;1.12;91.21;103520.13;5048795;28;20040;-80
2023/01/24 08:09:54;;;;;;;22.70;11.35;;;;;;;1.12;91.21;103521.84;5043956;28;20099;-81
2023/01/24 08:12:20;;;;;;;25.50;11.48;;;;;;;1.14;91.07;103526.06;5044947;28;20403;-82
2023/01/24 08:14:46;;;;;;;21.13;10.65;;;;;;;1.22;90.46;103522.53;5048421;28;20397;-82
2023/01/24 08:17:11;;;;;;;20.83;11.38;;;;;;;1.12;90.33;103520.13;5062232;28;20029;-81
2023/01/24 08:19:40;;;;;;;21.70;11.30;;;;;;;1.15;90.67;103524.38;5048613;28;20033;-80
2023/01/24 08:22:06;;;;;;;25.25;11.23;;;;;;;1.23;90.56;103524.22;5045534;28;20082;-81
2023/01/24 08:24:31;;;;;;;21.70;12.00;;;;;;;1.25;90.34;103525.03;5045040;28;20033;-80
2023/01/24 08:26:59;;;;;;;23.48;11.93;;;;;;;1.22;91.19;103522.53;5047342;28;20397;-81
2023/01/24 08:29:24;;;;;;;19.60;11.27;;;;;;;1.23;90.95;103525.06;5047013;28;21080;-81
2023/01/24 08:31:50;;;;;;;20.98;11.32;;;;;;;1.30;90.77;103529.19;5047352;28;20044;-82
2023/01/24 08:34:15;;;;;;;25.30;11.32;;;;;;;1.24;90.90;103531.84;5046233;28;20037;-81
2023/01/24 08:36:41;;;;;;;22.83;11.93;;;;;;;1.29;90.57;103542.81;5047424;28;20045;-81
2023/01/24 08:39:06;;;;;;;23.55;11.77;;;;;;;1.26;90.81;103542.91;5052370;28;20056;-80
2023/01/24 08:41:32;;;;;;;23.13;11.35;;;;;;;1.25;90.72;103536.09;5057496;28;20465;-81
2023/01/24 08:43:57;;;;;;;23.50;11.70;;;;;;;1.31;89.76;103535.97;5046097;28;20033;-80
2023/01/24 08:46:23;;;;;;;22.48;11.70;;;;;;;1.30;90.34;103549.63;5046807;28;20120;-81
2023/01/24 08:48:48;;;;;;;22.27;11.38;;;;;;;1.40;90.65;103549.47;5045845;28;20401;-82
2023/01/24 08:51:13;;;;;;;22.45;11.60;;;;;;;1.30;90.83;103554.75;5042762;28;20321;-80
2023/01/24 08:53:39;;;;;;;24.00;11.75;;;;;;;1.32;91.22;103552.19;5042350;28;20037;-83
2023/01/24 08:56:06;;;;;;;21.95;11.65;;;;;;;1.33;91.23;103553.84;5058140;28;20052;-79
2023/01/24 08:58:33;;;;;;;21.63;12.02;;;;;;;1.34;89.59;103556.38;5048269;28;20055;-80
2023/01/24 09:00:59;;;;;;;24.05;12.43;;;;;;;1.28;89.87;103558.19;5026827;28;20043;-82
2023/01/24 09:03:26;;;;;;;19.23;10.60;;;;;;;1.32;89.46;103557.28;5046147;28;20037;-79
2023/01/24 09:05:57;;;;;;;20.40;11.10;;;;;;;1.34;88.21;103560.66;5046717;28;20017;-81
2023/01/24 09:08:23;;;;;;;21.20;11.13;;;;;;;1.38;88.63;103556.34;5046392;28;20056;-82
2023/01/24 09:10:48;;;;;;;18.05;10.63;;;;;;;1.39;88.03;103558.84;5042747;28;20036;-81
2023/01/24 09:13:14;;;;;;;20.95;10.77;;;;;;;1.39;88.27;103563.94;5038924;28;20034;-81
2023/01/24 09:15:39;;;;;;;24.38;12.23;;;;;;;1.36;88.45;103564.84;5045678;28;20486;-81
2023/01/24 09:18:05;;;;;;;22.02;11.15;;;;;;;1.43;88.17;103557.06;5049134;28;20025;-80
2023/01/24 09:20:30;;;;;;;21.52;10.75;;;;;;;1.36;88.58;103556.34;5048020;28;20976;-79
2023/01/24 09:22:56;;;;;;;22.33;11.18;;;;;;;1.43;88.80;103563.03;5057045;28;20076;-81
2023/01/24 09:25:22;;;;;;;20.33;10.52;;;;;;;1.44;88.99;103558.75;5050179;28;20036;-81
2023/01/24 09:27:54;;;;;;;19.40;10.93;;;;;;;1.50;88.90;103562.03;5043974;28;20036;-80
2023/01/24 09:30:21;;;;;;;26.00;12.13;;;;;;;1.58;88.68;103567.00;5042724;28;20029;-80
2023/01/24 09:32:47;;;;;;;21.30;11.10;;;;;;;1.51;89.23;103557.78;5043439;28;20048;-80
2023/01/24 09:35:13;;;;;;;20.52;11.57;;;;;;;1.59;88.98;103568.69;5049985;28;20064;-79
2023/01/24 09:37:41;;;;;;;19.48;11.48;;;;;;;1.54;88.60;103565.38;5061837;28;20124;-81
2023/01/24 09:40:33;;;;;;;21.15;12.18;;;;;;;1.54;88.83;103562.81;5050634;28;20029;-80
2023/01/24 09:43:09;;;;;;;23.50;12.02;;;;;;;1.58;88.37;103574.66;5028141;28;20057;-81
2023/01/24 09:45:51;;;;;;;27.05;11.48;;;;;;;1.55;88.51;103572.19;5048937;28;20040;-81
2023/01/24 09:48:18;;;;;;;25.33;12.07;;;;;;;1.63;88.68;103572.88;5053808;28;20401;-81
2023/01/24 09:51:10;;;;;;;22.38;12.27;;;;;;;1.66;87.98;103572.00;5041607;28;20037;-81
2023/01/24 09:53:43;;;;;;;24.00;12.05;;;;;;;1.57;88.41;103572.16;5039226;28;20041;-80
2023/01/24 09:56:26;;;;;;;21.60;11.25;;;;;;;1.53;88.28;103572.22;5037000;28;20035;-81
2023/01/24 09:59:16;;;;;;;26.23;12.30;;;;;;;1.52;88.18;103564.56;5057169;28;20041;-81
2023/01/24 10:01:42;;;;;;;20.63;11.32;;;;;;;1.61;88.40;103571.22;5041189;28;20036;-80
2023/01/24 10:04:18;;;;;;;23.33;12.35;;;;;;;1.53;88.91;103571.38;5046446;28;20040;-80
2023/01/24 10:07:05;;;;;;;24.17;12.38;;;;;;;1.54;88.91;103579.03;5053096;28;20079;-80
2023/01/24 10:09:43;;;;;;;22.15;11.30;;;;;;;1.53;88.62;103572.22;5047936;28;20069;-81
2023/01/24 10:12:23;;;;;;;21.75;12.20;;;;;;;1.58;89.87;103579.78;5052883;28;20032;-82
2023/01/24 10:15:01;;;;;;;24.40;12.25;;;;;;;1.63;88.98;103578.00;5066666;28;20033;-81
2023/01/24 10:17:45;;;;;;;28.27;12.00;;;;;;;1.66;88.15;103580.50;5035000;28;20048;-82
2023/01/24 10:20:26;;;;;;;20.52;11.50;;;;;;;1.72;88.06;103566.75;5048234;28;20033;-81
2023/01/24 10:22:52;;;;;;;21.25;11.40;;;;;;;1.90;87.81;103566.38;5047232;28;20045;-82
2023/01/24 10:25:33;;;;;;;21.67;11.45;;;;;;;1.82;87.95;103573.34;5056926;28;20117;-81
2023/01/24 10:28:01;;;;;;;21.88;11.07;;;;;;;1.79;87.55;103578.53;5065364;28;20055;-80
2023/01/24 10:30:45;;;;;;;25.60;11.68;;;;;;;1.79;87.08;103575.13;5070151;28;20029;-80
2023/01/24 10:33:17;;;;;;;24.48;11.07;;;;;;;1.82;87.23;103568.22;5064184;28;20048;-80
2023/01/24 10:35:59;;;;;;;20.90;10.27;;;;;;;1.81;87.28;103565.69;5048806;28;20387;-79
2023/01/24 10:38:25;;;;;;;20.75;11.00;;;;;;;1.83;86.71;103571.63;5041314;28;20041;-81
2023/01/24 10:40:56;;;;;;;21.88;11.45;;;;;;;1.74;87.25;103573.50;5066859;28;20029;-81
2023/01/24 10:43:31;;;;;;;23.95;10.68;;;;;;;1.76;87.44;103573.47;5045810;28;20192;-81
2023/01/24 10:46:19;;;;;;;22.60;11.27;;;;;;;1.81;88.19;103568.25;5062818;28;20040;-80
2023/01/24 10:48:48;;;;;;;21.00;11.27;;;;;;;1.83;87.46;103567.38;5048834;28;20048;-82
2023/01/24 10:51:19;;;;;;;22.25;10.55;;;;;;;1.90;87.32;103576.59;5051473;28;20428;-81
2023/01/24 10:53:45;;;;;;;18.08;9.55;;;;;;;1.90;87.38;103578.31;5043776;28;20475;-81
2023/01/24 10:56:14;;;;;;;23.48;11.07;;;;;;;1.94;86.80;103574.81;5053036;28;20040;-82
2023/01/24 10:59:01;;;;;;;18.27;10.15;;;;;;;1.85;87.48;103577.56;5041889;28;20514;-80
2023/01/24 11:01:37;;;;;;;24.00;11.80;;;;;;;1.88;87.83;103578.31;5041344;28;20054;-83
2023/01/24 11:04:26;;;;;;;22.35;11.13;;;;;;;1.87;87.39;103581.78;5051548;28;20036;-80
2023/01/24 11:06:52;;;;;;;22.75;11.95;;;;;;;1.95;87.66;103579.06;5046333;28;20064;-79
2023/01/24 11:09:25;;;;;;;20.00;9.90;;;;;;;1.95;86.50;103577.34;5046804;28;20064;-81
2023/01/24 11:11:55;;;;;;;17.88;9.45;;;;;;;1.96;86.13;103573.06;5046621;28;20098;-81
2023/01/24 11:14:24;;;;;;;29.70;14.32;;;;;;;1.88;86.76;103562.13;5048322;28;20033;-82
2023/01/24 11:16:52;;;;;;;21.25;10.02;;;;;;;1.89;87.08;103566.41;5047645;28;20021;-81
2023/01/24 11:19:21;;;;;;;19.67;10.02;;;;;;;1.89;87.07;103563.84;5050466;28;20044;-81
2023/01/24 11:21:52;;;;;;;18.88;9.60;;;;;;;1.99;86.50;103565.31;5064485;28;20044;-80
2023/01/24 11:24:20;;;;;;;18.80;9.73;;;;;;;1.88;87.03;103559.59;5048393;28;20029;-81
2023/01/24 11:27:02;;;;;;;20.38;10.02;;;;;;;1.99;86.80;103557.63;5046936;28;20496;-81
2023/01/24 11:29:28;;;;;;;21.67;10.30;;;;;;;2.04;85.81;103557.56;5048750;28;20036;-82
2023/01/24 11:31:56;;;;;;;19.60;10.00;;;;;;;2.01;85.81;103550.75;5031214;28;20045;-82
2023/01/24 11:34:25;;;;;;;19.75;9.07;;;;;;;1.99;86.23;103551.69;5048752;28;20571;-82
2023/01/24 11:37:04;;;;;;;18.20;9.75;;;;;;;2.05;86.48;103544.69;5050210;28;20071;-81
2023/01/24 11:40:07;;;;;;;19.92;10.60;;;;;;;2.10;86.51;103545.44;5061208;28;20060;-82
2023/01/24 11:42:41;;;;;;;17.98;10.27;;;;;;;2.03;86.50;103546.44;5054561;28;20069;-82
2023/01/24 11:45:21;;;;;;;17.25;9.90;;;;;;;2.17;86.83;103537.63;5055769;28;20029;-80
2023/01/24 11:48:15;;;;;;;17.75;9.85;;;;;;;2.08;86.67;103543.81;5044915;28;20037;-81
2023/01/24 11:50:59;;;;;;;24.67;13.80;;;;;;;2.15;86.94;103530.00;5044516;28;20596;-81
2023/01/24 11:53:41;;;;;;;22.38;12.15;;;;;;;2.18;85.52;103534.19;5043441;28;20052;-80
2023/01/24 11:56:34;;;;;;;19.67;10.27;;;;;;;2.22;85.63;103526.41;5047786;28;20033;-81
2023/01/24 11:59:18;;;;;;;;;;;;;;;2.10;85.26;103524.97;5045871;28;20052;-79
2023/01/24 12:02:05;;;;;;;18.00;9.95;;;;;;;2.08;85.74;103523.34;5046347;28;20039;-79
2023/01/24 12:05:05;;;;;;;17.77;10.02;;;;;;;2.14;85.70;103526.56;5044083;28;20041;-80
2023/01/24 12:08:01;;;;;;;17.77;9.55;;;;;;;2.18;86.05;103518.84;5062744;28;20589;-81
2023/01/24 12:10:39;;;;;;;16.42;9.82;;;;;;;2.09;85.02;103514.75;5060936;28;20037;-81
2023/01/24 12:13:25;;;;;;;21.50;10.48;;;;;;;2.09;86.04;103505.38;5057770;28;20037;-81
2023/01/24 12:16:18;;;;;;;18.55;9.20;;;;;;;2.26;86.04;103506.69;5057920;28;20033;-80